createdAt,value
2019-04-26T00:02:02.576Z,67.50
2019-04-26T00:04:48.867Z,67.50
2019-04-26T00:07:34.095Z,67.70
2019-04-26T00:10:28.178Z,68.00
2019-04-26T00:13:23.367Z,68.00
2019-04-26T00:16:16.766Z,68.10
2019-04-26T00:19:02.330Z,68.30
2019-04-26T00:21:47.861Z,68.50
2019-04-26T00:24:34.298Z,68.80
2019-04-26T00:27:19.561Z,69.20
2019-04-26T00:30:04.940Z,69.70
2019-04-26T00:32:50.561Z,70.60
2019-04-26T00:35:46.953Z,71.40
2019-04-26T00:38:23.113Z,71.90
2019-04-26T00:41:08.347Z,72.40
2019-04-26T00:43:54.042Z,72.70
2019-04-26T00:46:39.422Z,72.70
2019-04-26T00:49:24.390Z,73.50
2019-04-26T00:52:09.650Z,73.20
2019-04-26T00:54:54.618Z,73.10
2019-04-26T00:57:39.982Z,73.60
2019-04-26T01:00:26.021Z,74.00
2019-04-26T01:03:11.648Z,74.30
2019-04-26T01:06:00.109Z,74.80
2019-04-26T01:08:45.479Z,75.50
2019-04-26T01:11:30.929Z,76.40
2019-04-26T01:14:17.820Z,76.50
2019-04-26T01:17:03.315Z,78.40
2019-04-26T01:19:48.671Z,77.50
2019-04-26T01:22:35.310Z,78.40
2019-04-26T01:25:40.002Z,78.80
2019-04-26T01:28:30.782Z,79.50
2019-04-26T01:31:15.958Z,80.30
2019-04-26T01:34:01.550Z,80.10
2019-04-26T01:36:46.535Z,80.30
2019-04-26T01:39:33.182Z,80.50
2019-04-26T01:42:36.761Z,80.50
2019-04-26T01:45:42.381Z,81.20
2019-04-26T01:48:43.034Z,80.70
2019-04-26T01:51:32.919Z,80.80
2019-04-26T01:54:18.866Z,81.20
2019-04-26T01:57:03.968Z,81.30
2019-04-26T01:59:52.053Z,81.80
2019-04-26T02:03:02.967Z,81.60
2019-04-26T02:05:47.922Z,81.60
2019-04-26T02:08:32.974Z,82.90
2019-04-26T02:11:18.334Z,82.70
2019-04-26T02:14:03.411Z,83.00
2019-04-26T02:16:48.780Z,83.50
2019-04-26T02:19:33.946Z,84.00
2019-04-26T02:22:29.882Z,84.50
2019-04-26T02:25:15.026Z,84.90
2019-04-26T02:28:00.608Z,85.30
2019-04-26T02:30:45.978Z,85.40
2019-04-26T02:33:31.788Z,85.40
2019-04-26T02:36:18.967Z,85.90
2019-04-26T02:39:11.198Z,87.20
2019-04-26T02:41:57.854Z,88.00
2019-04-26T02:44:54.742Z,88.90
2019-04-26T02:47:54.916Z,89.60
2019-04-26T02:50:44.610Z,89.90
2019-04-26T02:53:31.710Z,90.50
2019-04-26T02:56:25.512Z,90.90
2019-04-26T02:59:31.947Z,91.00
2019-04-26T03:02:20.015Z,91.60
2019-04-26T03:05:07.078Z,92.10
2019-04-26T03:07:54.763Z,93.30
2019-04-26T03:10:43.953Z,94.30
2019-04-26T03:13:38.773Z,95.40
2019-04-26T03:16:47.215Z,96.90
2019-04-26T03:19:38.194Z,97.60
2019-04-26T03:22:29.172Z,99.30
2019-04-26T03:25:16.952Z,99.90
2019-04-26T03:28:03.266Z,99.90
2019-04-26T03:30:53.568Z,99.90
2019-04-26T03:33:58.649Z,99.90
2019-04-26T03:36:59.598Z,99.90
2019-04-26T03:39:53.764Z,99.90
2019-04-26T03:42:57.311Z,99.90
2019-04-26T03:45:52.035Z,99.90
2019-04-26T03:48:44.794Z,99.90
2019-04-26T03:51:41.141Z,99.90
2019-04-26T03:54:27.082Z,99.90
2019-04-26T03:57:22.954Z,99.90
2019-04-26T04:00:24.119Z,99.90
2019-04-26T04:03:16.559Z,99.90
2019-04-26T04:06:02.499Z,99.90
2019-04-26T04:08:49.584Z,99.90
2019-04-26T04:11:42.303Z,99.90
2019-04-26T04:14:34.942Z,99.90
2019-04-26T04:17:27.234Z,99.90
2019-04-26T04:21:06.102Z,99.90
2019-04-26T04:23:57.667Z,99.90
2019-04-26T04:26:56.743Z,99.90
2019-04-26T04:29:55.021Z,99.90
2019-04-26T04:32:42.572Z,99.90
2019-04-26T04:35:28.004Z,99.90
2019-04-26T04:38:32.235Z,99.90
2019-04-26T04:41:29.543Z,99.90
2019-04-26T04:44:21.497Z,99.90
2019-04-26T04:47:33.892Z,99.90
2019-04-26T04:50:28.956Z,99.90
2019-04-26T04:53:36.835Z,99.90
2019-04-26T04:56:56.982Z,99.90
2019-04-26T04:59:48.139Z,99.90
2019-04-26T05:03:05.310Z,99.90
2019-04-26T05:06:07.223Z,99.90
2019-04-26T05:08:50.189Z,99.90
2019-04-26T05:11:38.438Z,99.90
2019-04-26T05:14:26.699Z,99.90
2019-04-26T05:17:29.510Z,99.90
2019-04-26T05:20:31.463Z,99.90
2019-04-26T05:23:46.112Z,99.90
2019-04-26T05:26:45.972Z,99.90
2019-04-26T05:29:56.145Z,99.90
2019-04-26T05:32:52.567Z,99.90
2019-04-26T05:35:49.183Z,99.90
2019-04-26T05:38:43.270Z,99.90
2019-04-26T05:41:37.534Z,99.90
2019-04-26T05:44:28.898Z,99.90
2019-04-26T05:47:39.662Z,99.90
2019-04-26T05:50:59.154Z,99.90
2019-04-26T05:54:06.209Z,99.90
2019-04-26T05:56:56.305Z,99.90
2019-04-26T05:59:50.413Z,99.90
2019-04-26T06:03:20.964Z,99.90
2019-04-26T06:06:19.704Z,99.90
2019-04-26T06:09:34.025Z,99.90
2019-04-26T06:12:40.930Z,99.90
2019-04-26T06:15:43.487Z,99.90
2019-04-26T06:18:53.112Z,99.90
2019-04-26T06:21:48.514Z,98.70
2019-04-26T06:25:16.252Z,96.10
2019-04-26T06:28:02.779Z,94.60
2019-04-26T06:30:54.116Z,92.50
2019-04-26T06:33:50.627Z,91.60
2019-04-26T06:36:46.794Z,89.70
2019-04-26T06:39:43.427Z,87.50
2019-04-26T06:42:58.268Z,86.20
2019-04-26T06:46:20.536Z,85.50
2019-04-26T06:49:28.570Z,86.80
2019-04-26T06:52:15.278Z,88.10
2019-04-26T06:55:07.619Z,86.70
2019-04-26T06:58:11.660Z,88.80
2019-04-26T07:01:08.831Z,86.60
2019-04-26T07:04:02.131Z,88.30
2019-04-26T07:07:05.470Z,85.40
2019-04-26T07:10:04.186Z,84.70
2019-04-26T07:13:02.113Z,84.50
2019-04-26T07:16:23.290Z,81.30
2019-04-26T07:19:19.493Z,79.40
2019-04-26T07:22:35.906Z,77.10
2019-04-26T07:25:42.042Z,77.00
2019-04-26T07:28:37.094Z,79.30
2019-04-26T07:31:26.403Z,80.10
2019-04-26T07:34:23.534Z,81.50
2019-04-26T07:37:30.802Z,78.20
2019-04-26T07:40:34.392Z,80.50
2019-04-26T07:43:40.540Z,79.60
2019-04-26T07:46:34.194Z,79.50
2019-04-26T07:49:42.649Z,79.70
2019-04-26T07:52:47.370Z,80.40
2019-04-26T07:55:39.046Z,81.20
2019-04-26T07:58:36.776Z,78.90
2019-04-26T08:01:45.866Z,75.70
2019-04-26T08:04:34.530Z,75.30
2019-04-26T08:07:20.543Z,73.20
2019-04-26T08:10:07.754Z,74.40
2019-04-26T08:12:56.798Z,74.10
2019-04-26T08:16:01.563Z,74.70
2019-04-26T08:18:51.435Z,74.80
2019-04-26T08:21:42.783Z,75.70
2019-04-26T08:24:28.320Z,73.50
2019-04-26T08:27:22.815Z,74.50
2019-04-26T08:30:10.273Z,75.80
2019-04-26T08:32:54.186Z,75.50
2019-04-26T08:35:39.365Z,75.60
2019-04-26T08:38:24.221Z,73.90
2019-04-26T08:41:09.884Z,75.30
2019-04-26T08:44:14.342Z,72.80
2019-04-26T08:47:24.404Z,72.80
2019-04-26T08:50:13.283Z,70.30
2019-04-26T08:52:58.970Z,72.00
2019-04-26T08:55:44.238Z,71.80
2019-04-26T08:58:29.239Z,72.10
2019-04-26T09:01:19.998Z,73.50
2019-04-26T09:04:11.319Z,74.50
2019-04-26T09:07:02.610Z,77.20
2019-04-26T09:09:56.748Z,78.80
2019-04-26T09:12:34.850Z,77.40
2019-04-26T09:15:25.062Z,77.50
2019-04-26T09:18:10.195Z,79.40
2019-04-26T09:20:55.349Z,80.60
2019-04-26T09:23:59.101Z,80.00
2019-04-26T09:26:54.799Z,77.30
2019-04-26T09:30:04.892Z,78.40
2019-04-26T09:32:58.238Z,77.00
2019-04-26T09:35:42.507Z,76.80
2019-04-26T09:38:27.546Z,76.40
2019-04-26T09:41:12.789Z,73.00
2019-04-26T09:44:03.861Z,74.30
2019-04-26T09:46:59.182Z,72.30
2019-04-26T09:50:03.074Z,72.30
2019-04-26T09:52:49.858Z,72.20
2019-04-26T09:55:35.942Z,71.00
2019-04-26T09:58:21.218Z,70.60
2019-04-26T10:01:06.439Z,72.40
2019-04-26T10:03:51.623Z,72.90
2019-04-26T10:06:36.918Z,71.20
2019-04-26T10:09:23.527Z,72.80
2019-04-26T10:12:20.534Z,73.90
2019-04-26T10:15:28.232Z,70.80
2019-04-26T10:18:15.258Z,70.50
2019-04-26T10:21:00.827Z,69.10
2019-04-26T10:23:45.919Z,69.90
2019-04-26T10:26:31.566Z,72.00
2019-04-26T10:29:17.246Z,70.00
2019-04-26T10:32:02.594Z,69.30
2019-04-26T10:34:48.950Z,66.30
2019-04-26T10:37:39.595Z,68.60
2019-04-26T10:40:21.741Z,66.70
2019-04-26T10:43:09.608Z,64.70
2019-04-26T10:45:55.071Z,65.10
2019-04-26T10:48:41.404Z,63.90
2019-04-26T10:51:33.798Z,61.80
2019-04-26T10:54:19.811Z,65.60
2019-04-26T10:57:09.303Z,68.40
2019-04-26T10:59:56.595Z,69.00
2019-04-26T11:02:41.670Z,71.70
2019-04-26T11:05:26.465Z,71.40
2019-04-26T11:08:12.398Z,73.80
2019-04-26T11:10:57.877Z,75.40
2019-04-26T11:13:43.351Z,75.30
2019-04-26T11:16:28.510Z,79.30
2019-04-26T11:19:14.130Z,80.70
2019-04-26T11:21:59.262Z,80.60
2019-04-26T11:24:44.526Z,82.50
2019-04-26T11:27:29.495Z,81.70
2019-04-26T11:30:20.593Z,82.00
2019-04-26T11:33:01.684Z,84.00
2019-04-26T11:35:47.134Z,82.90
2019-04-26T11:38:32.970Z,83.90
2019-04-26T11:41:18.627Z,84.70
2019-04-26T11:44:04.137Z,82.40
2019-04-26T11:46:49.545Z,80.60
2019-04-26T11:49:37.309Z,80.00
2019-04-26T11:52:22.538Z,78.20
2019-04-26T11:55:08.012Z,80.00
2019-04-26T11:57:53.586Z,78.30
2019-04-26T12:00:43.875Z,80.20
2019-04-26T12:03:29.002Z,82.20
2019-04-26T12:06:32.631Z,82.80
2019-04-26T12:09:24.029Z,82.90
2019-04-26T12:12:13.148Z,83.90
2019-04-26T12:14:56.921Z,83.60
2019-04-26T12:17:41.996Z,84.30
2019-04-26T12:20:28.463Z,84.00
2019-04-26T12:23:20.363Z,85.00
2019-04-26T12:26:00.847Z,86.50
2019-04-26T12:28:45.639Z,83.70
2019-04-26T12:31:30.650Z,85.20
2019-04-26T12:34:17.885Z,85.00
2019-04-26T12:37:03.375Z,85.40
2019-04-26T12:39:48.456Z,84.80
2019-04-26T12:42:33.334Z,83.80
2019-04-26T12:45:47.458Z,84.10
2019-04-26T12:48:31.373Z,84.90
2019-04-26T12:51:16.942Z,84.70
2019-04-26T12:54:03.856Z,85.30
2019-04-26T12:56:49.291Z,84.70
2019-04-26T12:59:43.898Z,84.40
2019-04-26T13:02:21.974Z,83.30
2019-04-26T13:05:07.190Z,83.90
2019-04-26T13:07:53.382Z,84.80
2019-04-26T13:10:57.166Z,84.90
2019-04-26T13:14:05.251Z,86.30
2019-04-26T13:16:57.182Z,87.20
2019-04-26T13:19:41.596Z,87.30
2019-04-26T13:22:26.645Z,88.80
2019-04-26T13:25:20.296Z,89.50
2019-04-26T13:27:59.374Z,89.70
2019-04-26T13:30:44.965Z,89.90
2019-04-26T13:33:30.140Z,88.80
2019-04-26T13:36:15.451Z,89.00
2019-04-26T13:39:01.266Z,90.20
2019-04-26T13:41:46.056Z,90.50
2019-04-26T13:45:09.258Z,90.70
2019-04-26T13:48:12.592Z,90.80
2019-04-26T13:51:05.623Z,90.90
2019-04-26T13:53:49.935Z,91.70
2019-04-26T13:56:36.072Z,91.60
2019-04-26T13:59:22.413Z,91.90
2019-04-26T14:02:11.819Z,91.80
2019-04-26T14:04:55.299Z,91.80
2019-04-26T14:07:40.782Z,92.00
2019-04-26T14:10:25.535Z,92.40
2019-04-26T14:13:10.786Z,93.00
2019-04-26T14:15:55.967Z,92.80
2019-04-26T14:18:41.445Z,92.40
2019-04-26T14:21:29.319Z,92.90
2019-04-26T14:24:25.193Z,93.00
2019-04-26T14:27:14.932Z,92.60
2019-04-26T14:30:02.470Z,92.90
2019-04-26T14:32:47.343Z,93.30
2019-04-26T14:35:32.587Z,93.60
2019-04-26T14:38:27.318Z,94.00
2019-04-26T14:41:05.015Z,93.80
2019-04-26T14:43:52.547Z,93.10
2019-04-26T14:46:48.239Z,93.60
2019-04-26T14:49:26.159Z,93.20
2019-04-26T14:52:12.182Z,93.80
2019-04-26T14:54:57.575Z,94.50
2019-04-26T14:57:46.790Z,94.70
2019-04-26T15:00:33.962Z,94.60
2019-04-26T15:03:34.063Z,95.10
2019-04-26T15:06:23.680Z,95.40
2019-04-26T15:09:19.263Z,95.50
2019-04-26T15:12:00.940Z,95.60
2019-04-26T15:14:43.009Z,95.60
2019-04-26T15:17:28.462Z,96.00
2019-04-26T15:20:16.794Z,96.10
2019-04-26T15:23:00.307Z,96.00
2019-04-26T15:25:48.807Z,96.50
2019-04-26T15:28:33.290Z,97.00
2019-04-26T15:31:21.552Z,97.10
2019-04-26T15:34:05.908Z,97.60
2019-04-26T15:36:53.955Z,97.50
2019-04-26T15:39:50.199Z,97.00
2019-04-26T15:43:00.893Z,97.70
2019-04-26T15:45:44.066Z,97.90
2019-04-26T15:48:54.492Z,96.60
2019-04-26T15:51:39.993Z,97.20
2019-04-26T15:54:25.547Z,96.90
2019-04-26T15:57:12.334Z,97.30
2019-04-26T15:59:58.091Z,97.30
2019-04-26T16:02:43.528Z,97.50
2019-04-26T16:05:29.835Z,97.40
2019-04-26T16:08:15.663Z,97.70
2019-04-26T16:11:00.961Z,98.30
2019-04-26T16:13:54.257Z,98.40
2019-04-26T16:16:34.665Z,98.20
2019-04-26T16:19:19.907Z,98.50
2019-04-26T16:22:05.909Z,99.00
2019-04-26T16:24:51.235Z,99.70
2019-04-26T16:27:38.397Z,99.90
2019-04-26T16:30:40.197Z,99.90
2019-04-26T16:33:28.419Z,99.90
2019-04-26T16:36:14.546Z,99.90
2019-04-26T16:38:59.730Z,99.90
2019-04-26T16:41:44.750Z,99.90
2019-04-26T16:44:31.471Z,99.90
2019-04-26T16:47:17.280Z,99.90
2019-04-26T16:50:03.697Z,99.90
2019-04-26T16:52:49.771Z,99.90
2019-04-26T16:58:24.817Z,99.90
2019-04-26T17:01:10.156Z,99.90
2019-04-26T17:03:56.506Z,99.90
2019-04-26T17:06:44.741Z,99.90
2019-04-26T17:09:50.257Z,99.90
2019-04-26T17:09:53.892Z,99.90
2019-04-26T17:12:16.371Z,99.90
2019-04-26T17:15:03.409Z,99.90
2019-04-26T17:17:50.557Z,99.90
2019-04-26T17:20:36.470Z,99.90
2019-04-26T17:23:47.015Z,99.90
2019-04-26T17:26:39.567Z,99.90
2019-04-26T17:29:24.898Z,99.90
2019-04-26T17:32:15.515Z,99.90
2019-04-26T17:34:59.518Z,99.90
2019-04-26T17:37:44.822Z,99.90
2019-04-26T17:40:36.163Z,99.90
2019-04-26T17:43:17.707Z,99.90
2019-04-26T17:46:03.051Z,99.90
2019-04-26T17:48:49.380Z,99.90
2019-04-26T17:51:43.611Z,99.90
2019-04-26T17:54:41.415Z,99.90
2019-04-26T17:57:14.434Z,99.90
2019-04-26T18:00:07.261Z,99.90
2019-04-26T18:02:48.016Z,99.90
2019-04-26T18:05:41.930Z,99.90
2019-04-26T18:08:36.162Z,99.90
2019-04-26T18:11:04.931Z,99.90
2019-04-26T18:13:51.163Z,99.90
2019-04-26T18:16:39.491Z,99.90
2019-04-26T18:19:34.945Z,99.90
2019-04-26T18:22:42.885Z,99.90
2019-04-26T18:25:28.630Z,99.90
2019-04-26T18:28:15.905Z,99.90
2019-04-26T18:31:01.219Z,99.90
2019-04-26T18:33:46.998Z,99.90
2019-04-26T18:36:33.207Z,99.90
2019-04-26T18:39:22.948Z,99.90
2019-04-26T18:42:06.009Z,99.90
2019-04-26T18:44:51.135Z,99.90
2019-04-26T18:47:39.062Z,99.90
2019-04-26T18:50:28.429Z,99.90
2019-04-26T18:53:40.580Z,99.90
2019-04-26T18:56:26.362Z,99.90
2019-04-26T18:59:13.497Z,99.90
2019-04-26T19:01:59.088Z,99.90
2019-04-26T19:04:48.038Z,99.90
2019-04-26T19:07:32.728Z,99.90
2019-04-26T19:10:18.554Z,99.90
2019-04-26T19:13:19.258Z,99.90
2019-04-26T19:16:27.597Z,99.90
2019-04-26T19:19:25.908Z,99.90
2019-04-26T19:22:15.551Z,99.90
2019-04-26T19:24:58.749Z,99.90
2019-04-26T19:27:49.634Z,99.90
2019-04-26T19:30:30.572Z,99.90
2019-04-26T19:33:18.392Z,99.90
2019-04-26T19:36:03.703Z,99.90
2019-04-26T19:38:49.831Z,99.90
2019-04-26T19:41:35.754Z,99.90
2019-04-26T19:44:24.131Z,99.90
2019-04-26T19:47:18.335Z,99.90
2019-04-26T19:50:41.982Z,99.90
2019-04-26T19:53:32.209Z,99.90
2019-04-26T19:56:24.585Z,99.90
2019-04-26T19:59:07.966Z,99.90
2019-04-26T20:01:56.855Z,99.90
2019-04-26T20:04:41.924Z,99.90
2019-04-26T20:07:28.214Z,99.90
2019-04-26T20:10:14.284Z,99.90
2019-04-26T20:12:59.542Z,99.90
2019-04-26T20:15:44.762Z,99.90
2019-04-26T20:18:32.819Z,99.90
2019-04-26T20:21:17.534Z,99.90
2019-04-26T20:24:02.395Z,99.90
2019-04-26T20:27:03.641Z,99.90
2019-04-26T20:29:49.541Z,99.90
2019-04-26T20:32:36.586Z,99.90
2019-04-26T20:35:26.923Z,99.90
2019-04-26T20:38:09.365Z,99.90
2019-04-26T20:40:54.850Z,99.90
2019-04-26T20:43:44.412Z,99.90
2019-04-26T20:46:29.715Z,99.90
2019-04-26T20:49:14.607Z,99.90
2019-04-26T20:51:59.714Z,99.90
2019-04-26T20:54:46.591Z,99.90
2019-04-26T20:57:34.427Z,99.90
2019-04-26T21:00:19.073Z,99.90
2019-04-26T21:03:06.178Z,99.90
2019-04-26T21:05:58.811Z,99.90
2019-04-26T21:08:39.002Z,99.90
2019-04-26T21:11:24.660Z,99.90
2019-04-26T21:14:10.048Z,99.90
2019-04-26T21:16:55.636Z,99.90
2019-04-26T21:19:41.773Z,99.90
2019-04-26T21:22:28.724Z,99.90
2019-04-26T21:25:27.692Z,99.90
2019-04-26T21:28:33.864Z,99.90
2019-04-26T21:31:25.671Z,99.90
2019-04-26T21:34:18.029Z,99.90
2019-04-26T21:37:40.709Z,99.90
2019-04-26T21:40:29.086Z,99.90
2019-04-26T21:43:13.946Z,99.90
2019-04-26T21:46:07.746Z,99.90
2019-04-26T21:48:46.324Z,99.90
2019-04-26T21:51:31.690Z,99.90
2019-04-26T21:54:18.017Z,99.90
2019-04-26T21:57:03.835Z,99.90
2019-04-26T21:59:48.898Z,99.90
2019-04-26T22:02:34.936Z,99.90
2019-04-26T22:05:20.857Z,99.90
2019-04-26T22:08:06.462Z,99.90
2019-04-26T22:10:51.565Z,99.90
2019-04-26T22:14:03.024Z,99.90
2019-04-26T22:17:11.013Z,99.90
2019-04-26T22:20:23.405Z,99.90
2019-04-26T22:23:33.094Z,99.90
2019-04-26T22:26:18.347Z,99.90
2019-04-26T22:29:03.844Z,99.90
2019-04-26T22:31:49.090Z,99.90
2019-04-26T22:34:37.387Z,99.90
2019-04-26T22:37:29.548Z,99.90
2019-04-26T22:40:10.502Z,99.90
2019-04-26T22:43:05.715Z,99.90
2019-04-26T22:46:14.125Z,99.90
2019-04-26T22:49:03.585Z,99.90
2019-04-26T22:51:48.249Z,99.90
2019-04-26T22:54:33.558Z,99.90
2019-04-26T22:57:19.069Z,99.90
2019-04-26T23:00:03.882Z,99.90
2019-04-26T23:02:49.332Z,99.90
2019-04-26T23:05:35.642Z,99.90
2019-04-26T23:08:23.596Z,99.90
2019-04-26T23:11:10.592Z,99.90
2019-04-26T23:14:04.928Z,99.90
2019-04-26T23:17:08.719Z,99.90
2019-04-26T23:19:58.701Z,99.90
2019-04-26T23:22:43.973Z,99.90
2019-04-26T23:25:31.143Z,99.90
2019-04-26T23:28:16.513Z,99.90
2019-04-26T23:31:07.808Z,99.90
2019-04-26T23:33:48.542Z,99.90
2019-04-26T23:36:34.846Z,99.90
2019-04-26T23:39:20.075Z,99.90
2019-04-26T23:42:05.979Z,99.90
2019-04-26T23:44:51.442Z,99.90
2019-04-26T23:47:38.760Z,99.90
2019-04-26T23:50:25.562Z,99.90
2019-04-26T23:53:11.750Z,99.90
2019-04-26T23:55:56.926Z,99.90
2019-04-26T23:58:44.143Z,99.90
